createdAt,value
2023-02-05T00:01:35.593Z,87.40
2023-02-05T00:04:03.437Z,87.40
2023-02-05T00:06:30.433Z,87.50
2023-02-05T00:08:58.227Z,87.60
2023-02-05T00:11:26.125Z,87.80
2023-02-05T00:13:53.469Z,87.80
2023-02-05T00:16:22.344Z,88.10
2023-02-05T00:18:49.442Z,88.20
2023-02-05T00:21:17.046Z,88.30
2023-02-05T00:23:44.097Z,88.50
2023-02-05T00:26:13.372Z,88.60
2023-02-05T00:28:41.833Z,88.90
2023-02-05T00:31:15.061Z,89.10
2023-02-05T00:33:42.742Z,89.30
2023-02-05T00:36:12.777Z,89.10
2023-02-05T00:38:41.782Z,89.10
2023-02-05T00:41:09.194Z,88.90
2023-02-05T00:43:38.445Z,88.70
2023-02-05T00:46:05.951Z,88.60
2023-02-05T00:48:33.091Z,88.50
2023-02-05T00:51:00.112Z,88.30
2023-02-05T00:53:27.596Z,88.10
2023-02-05T00:55:55.286Z,87.80
2023-02-05T00:58:22.681Z,87.60
2023-02-05T01:00:52.651Z,87.40
2023-02-05T01:03:20.327Z,87.20
2023-02-05T01:05:48.139Z,86.90
2023-02-05T01:08:15.875Z,86.70
2023-02-05T01:10:47.650Z,86.50
2023-02-05T01:13:17.928Z,86.40
2023-02-05T01:15:46.027Z,86.20
2023-02-05T01:18:13.207Z,86.00
2023-02-05T01:20:41.604Z,86.00
2023-02-05T01:23:08.915Z,86.10
2023-02-05T01:25:37.177Z,86.20
2023-02-05T01:28:04.731Z,86.30
2023-02-05T01:30:31.787Z,86.30
2023-02-05T01:32:58.885Z,86.50
2023-02-05T01:35:25.929Z,86.60
2023-02-05T01:37:52.882Z,86.70
2023-02-05T01:40:20.311Z,86.80
2023-02-05T01:42:47.381Z,86.80
2023-02-05T01:45:23.603Z,86.90
2023-02-05T01:47:55.880Z,87.20
2023-02-05T01:50:32.021Z,87.40
2023-02-05T01:53:06.042Z,87.60
2023-02-05T01:55:35.480Z,87.90
2023-02-05T01:58:03.413Z,88.10
2023-02-05T02:00:30.579Z,88.30
2023-02-05T02:02:59.227Z,88.30
2023-02-05T02:05:26.260Z,88.50
2023-02-05T02:07:53.397Z,88.70
2023-02-05T02:10:20.618Z,88.80
2023-02-05T02:12:49.954Z,88.70
2023-02-05T02:15:21.723Z,88.80
2023-02-05T02:17:52.421Z,88.70
2023-02-05T02:20:26.178Z,88.40
2023-02-05T02:22:55.887Z,88.20
2023-02-05T02:25:48.601Z,87.90
2023-02-05T02:28:35.674Z,87.50
2023-02-05T02:31:24.942Z,87.20
2023-02-05T02:34:18.360Z,86.90
2023-02-05T02:36:53.301Z,86.70
2023-02-05T02:39:44.292Z,86.30
2023-02-05T02:42:35.726Z,86.30
2023-02-05T02:45:08.114Z,86.00
2023-02-05T02:47:40.827Z,85.80
2023-02-05T02:50:18.120Z,85.70
2023-02-05T02:52:47.277Z,85.60
2023-02-05T02:55:17.171Z,85.70
2023-02-05T02:57:49.075Z,85.70
2023-02-05T03:00:20.095Z,85.70
2023-02-05T03:02:50.440Z,85.80
2023-02-05T03:05:22.453Z,86.50
2023-02-05T03:07:55.979Z,85.80
2023-02-05T03:10:31.512Z,85.80
2023-02-05T03:12:58.509Z,86.40
2023-02-05T03:15:26.781Z,85.70
2023-02-05T03:17:56.036Z,85.90
2023-02-05T03:20:26.936Z,86.00
2023-02-05T03:22:56.277Z,86.20
2023-02-05T03:25:27.406Z,86.40
2023-02-05T03:27:57.725Z,86.50
2023-02-05T03:30:33.844Z,86.70
2023-02-05T03:33:10.092Z,86.80
2023-02-05T03:35:59.812Z,86.80
2023-02-05T03:38:59.310Z,86.70
2023-02-05T03:41:55.783Z,86.30
2023-02-05T03:44:36.684Z,85.90
2023-02-05T03:47:25.670Z,85.40
2023-02-05T03:50:09.810Z,85.20
2023-02-05T03:52:45.378Z,85.10
2023-02-05T03:55:31.256Z,84.90
2023-02-05T03:58:07.572Z,84.70
2023-02-05T04:00:36.177Z,84.60
2023-02-05T04:03:04.665Z,84.40
2023-02-05T04:05:33.994Z,84.30
2023-02-05T04:08:03.140Z,83.80
2023-02-05T04:10:35.489Z,83.50
2023-02-05T04:13:03.842Z,83.00
2023-02-05T04:15:34.056Z,82.60
2023-02-05T04:18:04.451Z,82.30
2023-02-05T04:20:31.428Z,82.10
2023-02-05T04:22:59.861Z,82.00
2023-02-05T04:25:29.202Z,81.90
2023-02-05T04:28:00.657Z,81.90
2023-02-05T04:30:28.274Z,81.70
2023-02-05T04:32:55.181Z,81.50
2023-02-05T04:35:22.274Z,81.20
2023-02-05T04:37:49.752Z,81.00
2023-02-05T04:40:17.995Z,80.70
2023-02-05T04:42:45.349Z,80.60
2023-02-05T04:45:12.918Z,80.00
2023-02-05T04:47:39.968Z,79.40
2023-02-05T04:50:07.146Z,78.80
2023-02-05T04:52:34.132Z,78.20
2023-02-05T04:55:01.103Z,77.50
2023-02-05T04:57:28.104Z,77.30
2023-02-05T04:59:55.025Z,77.00
2023-02-05T05:02:23.203Z,76.90
2023-02-05T05:04:50.248Z,76.30
2023-02-05T05:07:17.186Z,76.30
2023-02-05T05:09:44.184Z,75.70
2023-02-05T05:12:11.117Z,76.00
2023-02-05T05:14:38.247Z,75.90
2023-02-05T05:17:05.229Z,75.90
2023-02-05T05:19:32.212Z,75.60
2023-02-05T05:21:59.308Z,75.50
2023-02-05T05:24:26.336Z,75.30
2023-02-05T05:26:53.347Z,75.20
2023-02-05T05:29:20.307Z,75.10
2023-02-05T05:31:47.639Z,74.80
2023-02-05T05:34:14.787Z,74.80
2023-02-05T05:36:43.691Z,74.80
2023-02-05T05:39:29.527Z,74.80
2023-02-05T05:42:14.901Z,74.70
2023-02-05T05:44:41.992Z,74.80
2023-02-05T05:47:08.955Z,74.40
2023-02-05T05:49:36.011Z,74.30
2023-02-05T05:52:02.967Z,74.20
2023-02-05T05:54:29.940Z,74.30
2023-02-05T05:56:56.824Z,74.60
2023-02-05T05:59:23.768Z,74.40
2023-02-05T06:01:50.723Z,74.50
2023-02-05T06:04:17.677Z,74.70
2023-02-05T06:06:44.695Z,74.90
2023-02-05T06:09:12.836Z,75.00
2023-02-05T06:11:40.153Z,75.30
2023-02-05T06:14:07.135Z,75.30
2023-02-05T06:16:34.208Z,75.30
2023-02-05T06:19:01.193Z,75.10
2023-02-05T06:21:28.131Z,74.80
2023-02-05T06:23:55.072Z,74.80
2023-02-05T06:26:22.098Z,74.70
2023-02-05T06:28:49.119Z,74.70
2023-02-05T06:31:17.458Z,74.70
2023-02-05T06:33:44.661Z,74.70
2023-02-05T06:36:11.583Z,74.60
2023-02-05T06:38:38.524Z,74.60
2023-02-05T06:41:05.429Z,74.40
2023-02-05T06:43:32.427Z,74.50
2023-02-05T06:45:59.364Z,74.60
2023-02-05T06:48:26.298Z,74.70
2023-02-05T06:50:53.268Z,74.60
2023-02-05T06:53:20.255Z,74.40
2023-02-05T06:55:47.297Z,74.20
2023-02-05T06:58:14.330Z,74.10
2023-02-05T07:00:41.321Z,74.00
2023-02-05T07:03:08.350Z,73.70
2023-02-05T07:05:35.537Z,73.40
2023-02-05T07:08:04.211Z,72.60
2023-02-05T07:10:31.284Z,71.80
2023-02-05T07:12:58.296Z,71.20
2023-02-05T07:15:25.293Z,70.80
2023-02-05T07:17:52.212Z,70.90
2023-02-05T07:20:19.430Z,71.20
2023-02-05T07:22:47.263Z,71.20
2023-02-05T07:25:14.373Z,70.90
2023-02-05T07:27:41.659Z,70.00
2023-02-05T07:30:09.300Z,68.70
2023-02-05T07:32:36.257Z,68.00
2023-02-05T07:35:03.919Z,67.30
2023-02-05T07:37:30.989Z,66.30
2023-02-05T07:39:57.974Z,65.20
2023-02-05T07:42:25.044Z,64.60
2023-02-05T07:44:57.231Z,64.20
2023-02-05T07:47:24.211Z,65.00
2023-02-05T07:49:51.331Z,65.10
2023-02-05T07:52:18.355Z,65.70
2023-02-05T07:54:45.312Z,66.70
2023-02-05T07:57:12.284Z,67.10
2023-02-05T07:59:39.290Z,67.30
2023-02-05T08:02:06.462Z,67.30
2023-02-05T08:04:33.542Z,67.10
2023-02-05T08:07:00.566Z,67.00
2023-02-05T08:09:27.839Z,67.60
2023-02-05T08:11:54.877Z,67.90
2023-02-05T08:14:21.847Z,67.70
2023-02-05T08:16:49.059Z,68.40
2023-02-05T08:19:18.055Z,69.00
2023-02-05T08:21:45.461Z,68.80
2023-02-05T08:24:12.481Z,68.50
2023-02-05T08:26:40.335Z,68.40
2023-02-05T08:29:08.391Z,68.00
2023-02-05T08:31:36.101Z,67.40
2023-02-05T08:34:03.975Z,67.40
2023-02-05T08:36:31.339Z,67.40
2023-02-05T08:38:58.357Z,67.10
2023-02-05T08:41:25.326Z,66.70
2023-02-05T08:43:52.336Z,66.20
2023-02-05T08:46:24.441Z,66.30
2023-02-05T08:48:51.691Z,67.20
2023-02-05T08:51:20.082Z,66.80
2023-02-05T08:53:47.206Z,66.70
2023-02-05T08:56:15.948Z,66.90
2023-02-05T08:58:43.112Z,67.30
2023-02-05T09:01:13.983Z,67.50
2023-02-05T09:03:41.040Z,67.30
2023-02-05T09:06:10.303Z,67.00
2023-02-05T09:08:37.665Z,67.00
2023-02-05T09:11:05.312Z,67.00
2023-02-05T09:13:32.735Z,66.80
2023-02-05T09:15:59.939Z,66.00
2023-02-05T09:18:27.125Z,66.00
2023-02-05T09:20:54.617Z,65.70
2023-02-05T09:23:21.954Z,66.00
2023-02-05T09:25:49.111Z,65.60
2023-02-05T09:28:16.333Z,65.50
2023-02-05T09:30:45.709Z,65.70
2023-02-05T09:33:13.674Z,65.60
2023-02-05T09:35:40.988Z,63.70
2023-02-05T09:38:08.053Z,63.30
2023-02-05T09:41:16.936Z,62.30
2023-02-05T09:43:54.639Z,61.50
2023-02-05T09:46:46.227Z,61.70
2023-02-05T09:49:21.479Z,62.00
2023-02-05T09:51:53.007Z,60.70
2023-02-05T09:54:39.909Z,60.70
2023-02-05T09:57:13.693Z,60.50
2023-02-05T09:59:44.366Z,59.90
2023-02-05T10:02:35.919Z,60.40
2023-02-05T10:05:07.766Z,60.00
2023-02-05T10:07:37.751Z,58.00
2023-02-05T10:10:26.859Z,58.40
2023-02-05T10:13:32.177Z,58.90
2023-02-05T10:16:23.267Z,58.40
2023-02-05T10:18:59.053Z,59.80
2023-02-05T10:21:41.492Z,59.50
2023-02-05T10:24:27.173Z,58.70
2023-02-05T10:27:07.454Z,58.90
2023-02-05T10:30:11.807Z,59.50
2023-02-05T10:32:44.512Z,58.40
2023-02-05T10:35:25.494Z,59.00
2023-02-05T10:37:56.855Z,58.10
2023-02-05T10:40:42.305Z,59.40
2023-02-05T10:43:29.770Z,58.50
2023-02-05T10:45:58.312Z,56.90
2023-02-05T10:48:42.275Z,57.70
2023-02-05T10:51:11.214Z,57.30
2023-02-05T10:53:38.233Z,58.00
2023-02-05T10:56:06.142Z,57.40
2023-02-05T10:58:51.133Z,57.10
2023-02-05T11:01:21.898Z,58.30
2023-02-05T11:03:56.740Z,58.50
2023-02-05T11:06:26.319Z,58.00
2023-02-05T11:08:53.539Z,58.50
2023-02-05T11:11:29.684Z,57.80
2023-02-05T11:14:07.216Z,56.70
2023-02-05T11:16:41.170Z,57.20
2023-02-05T11:19:21.041Z,56.70
2023-02-05T11:22:03.066Z,56.70
2023-02-05T11:24:33.234Z,56.90
2023-02-05T11:27:26.852Z,57.30
2023-02-05T11:30:00.193Z,57.20
2023-02-05T11:32:37.310Z,57.70
2023-02-05T11:35:19.757Z,57.40
2023-02-05T11:37:50.410Z,56.30
2023-02-05T11:40:24.644Z,56.50
2023-02-05T11:43:03.373Z,56.60
2023-02-05T11:45:32.706Z,56.60
2023-02-05T11:48:03.350Z,55.80
2023-02-05T11:50:32.889Z,56.90
2023-02-05T11:53:16.366Z,57.60
2023-02-05T11:55:44.420Z,56.40
2023-02-05T11:58:31.586Z,55.70
2023-02-05T12:01:04.623Z,55.80
2023-02-05T12:03:33.644Z,56.50
2023-02-05T12:06:05.992Z,56.60
2023-02-05T12:08:43.188Z,56.40
2023-02-05T12:11:21.726Z,57.00
2023-02-05T12:14:13.916Z,56.90
2023-02-05T12:16:46.375Z,57.20
2023-02-05T12:19:29.529Z,56.90
2023-02-05T12:22:10.886Z,56.60
2023-02-05T12:24:56.099Z,56.80
2023-02-05T12:27:34.997Z,57.40
2023-02-05T12:30:27.174Z,56.80
2023-02-05T12:33:20.801Z,56.30
2023-02-05T12:36:11.241Z,56.90
2023-02-05T12:38:44.230Z,57.50
2023-02-05T12:41:11.189Z,57.00
2023-02-05T12:43:41.038Z,57.30
2023-02-05T12:46:38.377Z,58.00
2023-02-05T12:49:14.120Z,57.80
2023-02-05T12:52:10.202Z,56.40
2023-02-05T12:54:57.073Z,57.20
2023-02-05T12:57:50.179Z,57.30
2023-02-05T13:00:23.018Z,58.00
2023-02-05T13:03:08.535Z,58.10
2023-02-05T13:05:48.729Z,58.20
2023-02-05T13:08:29.494Z,58.90
2023-02-05T13:11:05.587Z,59.20
2023-02-05T13:13:56.458Z,59.20
2023-02-05T13:16:30.979Z,58.90
2023-02-05T13:19:10.136Z,58.50
2023-02-05T13:21:55.458Z,59.60
2023-02-05T13:24:52.050Z,59.70
2023-02-05T13:27:44.890Z,59.10
2023-02-05T13:30:20.651Z,58.70
2023-02-05T13:32:51.914Z,59.20
2023-02-05T13:35:20.201Z,58.70
2023-02-05T13:38:22.189Z,58.90
2023-02-05T13:41:04.338Z,58.60
2023-02-05T13:43:49.777Z,58.00
2023-02-05T13:46:46.805Z,57.90
2023-02-05T13:49:35.190Z,58.10
2023-02-05T13:52:10.467Z,58.00
2023-02-05T13:55:05.132Z,58.20
2023-02-05T13:58:06.548Z,58.70
2023-02-05T14:00:34.963Z,58.00
2023-02-05T14:03:09.496Z,58.40
2023-02-05T14:05:40.908Z,58.20
2023-02-05T14:08:24.665Z,57.30
2023-02-05T14:11:01.931Z,58.10
2023-02-05T14:13:33.656Z,59.00
2023-02-05T14:16:40.144Z,59.20
2023-02-05T14:19:22.353Z,59.10
2023-02-05T14:21:59.197Z,59.60
2023-02-05T14:24:46.690Z,59.90
2023-02-05T14:27:45.264Z,59.30
2023-02-05T14:30:30.587Z,59.10
2023-02-05T14:32:57.568Z,59.60
2023-02-05T14:35:43.998Z,60.00
2023-02-05T14:38:31.642Z,59.60
2023-02-05T14:41:03.358Z,60.40
2023-02-05T14:43:36.345Z,60.70
2023-02-05T14:46:21.172Z,60.50
2023-02-05T14:48:48.977Z,60.90
2023-02-05T14:51:24.610Z,61.00
2023-02-05T14:53:58.771Z,60.90
2023-02-05T14:56:34.481Z,61.10
2023-02-05T14:59:07.434Z,60.90
2023-02-05T15:01:34.583Z,61.00
2023-02-05T15:04:04.699Z,61.00
2023-02-05T15:06:39.472Z,61.40
2023-02-05T15:09:14.848Z,61.30
2023-02-05T15:12:02.727Z,61.30
2023-02-05T15:14:57.909Z,61.50
2023-02-05T15:17:32.611Z,61.00
2023-02-05T15:20:25.920Z,61.60
2023-02-05T15:23:19.766Z,61.50
2023-02-05T15:26:03.030Z,61.90
2023-02-05T15:28:33.025Z,61.60
2023-02-05T15:31:27.502Z,62.00
2023-02-05T15:33:57.946Z,62.20
2023-02-05T15:36:45.716Z,62.50
2023-02-05T15:39:35.088Z,62.40
2023-02-05T15:42:05.148Z,62.70
2023-02-05T15:44:34.992Z,62.60
2023-02-05T15:47:07.561Z,62.80
2023-02-05T15:49:42.996Z,62.80
2023-02-05T15:52:21.379Z,63.50
2023-02-05T15:54:49.786Z,63.20
2023-02-05T15:57:22.832Z,63.10
2023-02-05T15:59:51.859Z,62.90
2023-02-05T16:02:26.437Z,63.00
2023-02-05T16:05:02.013Z,62.80
2023-02-05T16:07:35.499Z,63.00
2023-02-05T16:10:20.616Z,62.70
2023-02-05T16:13:06.094Z,62.70
2023-02-05T16:15:41.034Z,62.50
2023-02-05T16:18:35.129Z,62.10
2023-02-05T16:21:13.934Z,62.20
2023-02-05T16:23:45.806Z,62.50
2023-02-05T16:26:29.840Z,62.30
2023-02-05T16:29:02.176Z,62.70
2023-02-05T16:31:31.208Z,63.00
2023-02-05T16:34:05.717Z,63.00
2023-02-05T16:36:38.198Z,62.80
2023-02-05T16:39:14.423Z,63.00
2023-02-05T16:41:43.676Z,63.50
2023-02-05T16:44:28.617Z,63.60
2023-02-05T16:47:12.227Z,64.00
2023-02-05T16:49:39.837Z,64.10
2023-02-05T16:52:30.923Z,64.20
2023-02-05T16:55:27.320Z,64.40
2023-02-05T16:58:03.416Z,64.90
2023-02-05T17:00:30.514Z,65.00
2023-02-05T17:03:00.214Z,65.20
2023-02-05T17:05:34.149Z,65.00
2023-02-05T17:08:02.955Z,65.20
2023-02-05T17:10:30.214Z,65.10
2023-02-05T17:13:05.026Z,64.60
2023-02-05T17:15:37.620Z,64.80
2023-02-05T17:18:21.325Z,64.90
2023-02-05T17:20:48.698Z,65.00
2023-02-05T17:23:17.539Z,65.00
2023-02-05T17:25:55.365Z,64.90
2023-02-05T17:28:27.969Z,65.00
2023-02-05T17:30:59.534Z,64.50
2023-02-05T17:33:28.357Z,64.80
2023-02-05T17:35:56.067Z,64.60
2023-02-05T17:38:25.813Z,64.60
2023-02-05T17:41:12.792Z,64.40
2023-02-05T17:43:39.862Z,64.70
2023-02-05T17:46:14.615Z,64.10
2023-02-05T17:48:42.333Z,63.60
2023-02-05T17:51:20.098Z,63.70
2023-02-05T17:53:47.992Z,63.80
2023-02-05T17:56:15.329Z,63.60
2023-02-05T17:58:42.327Z,64.00
2023-02-05T18:01:11.860Z,63.80
2023-02-05T18:03:39.212Z,64.20
2023-02-05T18:06:06.469Z,63.70
2023-02-05T18:08:36.211Z,63.90
2023-02-05T18:11:03.793Z,64.20
2023-02-05T18:13:30.864Z,64.40
2023-02-05T18:16:01.632Z,64.30
2023-02-05T18:18:29.699Z,64.20
2023-02-05T18:20:57.551Z,64.20
2023-02-05T18:23:29.014Z,64.10
2023-02-05T18:26:00.267Z,64.10
2023-02-05T18:28:28.551Z,64.40
2023-02-05T18:31:00.522Z,64.60
2023-02-05T18:33:28.248Z,64.80
2023-02-05T18:36:04.496Z,65.10
2023-02-05T18:38:32.059Z,65.20
2023-02-05T18:41:21.776Z,65.30
2023-02-05T18:43:48.763Z,65.60
2023-02-05T18:46:18.013Z,65.50
2023-02-05T18:48:51.011Z,65.50
2023-02-05T18:51:20.708Z,65.70
2023-02-05T18:53:48.812Z,66.00
2023-02-05T18:56:18.676Z,66.20
2023-02-05T18:58:51.949Z,66.50
2023-02-05T19:01:19.790Z,66.40
2023-02-05T19:03:47.201Z,66.50
2023-02-05T19:06:19.171Z,66.60
2023-02-05T19:08:46.302Z,66.80
2023-02-05T19:11:16.919Z,66.90
2023-02-05T19:13:44.134Z,67.00
2023-02-05T19:16:16.279Z,67.20
2023-02-05T19:18:45.087Z,67.40
2023-02-05T19:21:17.137Z,67.40
2023-02-05T19:23:46.019Z,67.40
2023-02-05T19:26:15.677Z,67.40
2023-02-05T19:28:44.923Z,67.50
2023-02-05T19:31:15.043Z,67.50
2023-02-05T19:33:42.962Z,67.60
2023-02-05T19:36:10.804Z,67.70
2023-02-05T19:38:40.221Z,67.90
2023-02-05T19:41:14.062Z,68.00
2023-02-05T19:43:43.601Z,68.20
2023-02-05T19:46:10.612Z,68.40
2023-02-05T19:48:37.578Z,68.70
2023-02-05T19:51:10.550Z,69.00
2023-02-05T19:53:39.703Z,69.40
2023-02-05T19:56:09.185Z,69.60
2023-02-05T19:58:42.418Z,69.70
2023-02-05T20:01:17.171Z,70.00
2023-02-05T20:03:45.041Z,70.20
2023-02-05T20:06:17.659Z,70.50
2023-02-05T20:08:45.654Z,70.90
2023-02-05T20:11:13.571Z,71.00
2023-02-05T20:13:41.623Z,71.20
2023-02-05T20:16:14.819Z,71.30
2023-02-05T20:18:42.502Z,71.40
2023-02-05T20:21:15.008Z,71.50
2023-02-05T20:23:42.425Z,71.70
2023-02-05T20:26:10.527Z,71.60
2023-02-05T20:28:58.920Z,71.80
2023-02-05T20:31:33.848Z,72.20
2023-02-05T20:34:17.911Z,72.30
2023-02-05T20:36:50.448Z,72.50
2023-02-05T20:39:19.078Z,72.60
2023-02-05T20:41:47.952Z,72.50
2023-02-05T20:44:15.277Z,72.50
2023-02-05T20:46:42.349Z,72.60
2023-02-05T20:49:09.540Z,72.70
2023-02-05T20:51:37.410Z,72.60
2023-02-05T20:54:04.573Z,72.60
2023-02-05T20:56:31.657Z,72.60
2023-02-05T20:59:00.458Z,72.70
2023-02-05T21:01:29.803Z,72.90
2023-02-05T21:03:59.063Z,72.90
2023-02-05T21:06:27.697Z,73.00
2023-02-05T21:08:55.014Z,72.80
2023-02-05T21:11:23.711Z,72.60
2023-02-05T21:13:52.626Z,72.60
2023-02-05T21:16:23.035Z,72.60
2023-02-05T21:18:51.365Z,72.60
2023-02-05T21:21:21.607Z,72.60
2023-02-05T21:23:49.097Z,72.60
2023-02-05T21:26:28.120Z,72.50
2023-02-05T21:28:57.386Z,72.40
2023-02-05T21:31:25.776Z,72.60
2023-02-05T21:33:52.868Z,72.50
2023-02-05T21:36:20.550Z,72.30
2023-02-05T21:38:47.723Z,72.10
2023-02-05T21:41:17.340Z,72.00
2023-02-05T21:43:49.575Z,72.10
2023-02-05T21:46:16.888Z,72.10
2023-02-05T21:48:48.535Z,72.20
2023-02-05T21:51:17.055Z,72.30
2023-02-05T21:53:44.254Z,72.60
2023-02-05T21:56:14.880Z,72.80
2023-02-05T21:58:43.132Z,73.10
2023-02-05T22:01:21.574Z,73.30
2023-02-05T22:03:57.263Z,73.60
2023-02-05T22:06:26.258Z,73.80
2023-02-05T22:08:53.957Z,74.00
2023-02-05T22:11:22.375Z,74.00
2023-02-05T22:13:52.024Z,74.20
2023-02-05T22:16:25.356Z,74.60
2023-02-05T22:18:52.846Z,75.00
2023-02-05T22:21:22.510Z,75.30
2023-02-05T22:23:51.691Z,75.60
2023-02-05T22:26:20.906Z,75.70
2023-02-05T22:28:48.630Z,75.70
2023-02-05T22:31:18.234Z,75.80
2023-02-05T22:33:47.298Z,75.60
2023-02-05T22:36:18.255Z,75.40
2023-02-05T22:38:45.477Z,75.40
2023-02-05T22:41:18.520Z,75.60
2023-02-05T22:43:45.475Z,76.00
2023-02-05T22:46:18.150Z,76.10
2023-02-05T22:48:46.570Z,76.20
2023-02-05T22:51:17.631Z,76.40
2023-02-05T22:53:44.720Z,76.60
2023-02-05T22:56:13.111Z,76.90
2023-02-05T22:58:42.101Z,77.30
2023-02-05T23:01:18.422Z,77.60
2023-02-05T23:03:47.069Z,78.00
2023-02-05T23:06:16.832Z,78.20
2023-02-05T23:08:45.021Z,78.30
2023-02-05T23:11:13.722Z,78.40
2023-02-05T23:13:41.464Z,79.30
2023-02-05T23:16:17.053Z,79.20
2023-02-05T23:18:44.976Z,79.20
2023-02-05T23:21:20.612Z,79.50
2023-02-05T23:23:48.044Z,79.50
2023-02-05T23:26:20.777Z,79.80
2023-02-05T23:28:48.785Z,79.70
2023-02-05T23:31:16.672Z,80.10
2023-02-05T23:33:43.931Z,80.30
2023-02-05T23:36:11.498Z,80.40
2023-02-05T23:38:38.702Z,80.80
2023-02-05T23:41:06.470Z,80.90
2023-02-05T23:43:35.160Z,81.00
2023-02-05T23:46:03.593Z,81.20
2023-02-05T23:48:30.661Z,81.20
2023-02-05T23:50:57.622Z,81.50
2023-02-05T23:53:25.339Z,81.60
2023-02-05T23:55:53.532Z,81.40
2023-02-05T23:58:26.061Z,81.60
